Terminal Aerodrome Forecast
Issued by NWS

Home | Current Version | Previous Version | Text Only | Print | Product List | Glossary On
Versions: 1 2 3 4 5 6 7 8 9 10 11 12 13
851
FTUS43 KDTX 251729
TAFMBS
TAF
KMBS 251729Z 2518/2618 24008KT P6SM SCT070
     FM260100 10005KT P6SM SCT060 BKN150
     FM260600 14005KT 5SM -SHRA BR OVC060
     FM261100 18006KT 6SM BR BKN060
     FM261500 21008KT P6SM BKN070=

USA.gov is the U.S. government's official web portal to all federal, state and local government web resources and services.